createdAt,value
2018-05-14T00:02:21.807Z,16.30
2018-05-14T00:04:55.621Z,16.30
2018-05-14T00:07:27.019Z,16.30
2018-05-14T00:10:10.339Z,16.20
2018-05-14T00:12:39.305Z,16.10
2018-05-14T00:15:07.458Z,16.10
2018-05-14T00:17:35.595Z,16.10
2018-05-14T00:20:03.787Z,16.20
2018-05-14T00:22:32.892Z,16.10
2018-05-14T00:25:03.550Z,16.10
2018-05-14T00:27:44.288Z,16.00
2018-05-14T00:30:18.359Z,16.00
2018-05-14T00:32:49.917Z,16.00
2018-05-14T00:35:18.123Z,16.00
2018-05-14T00:37:46.304Z,15.90
2018-05-14T00:40:14.436Z,15.90
2018-05-14T00:42:42.644Z,15.90
2018-05-14T00:45:10.778Z,15.90
2018-05-14T00:47:38.952Z,15.90
2018-05-14T00:50:07.842Z,15.80
2018-05-14T00:52:36.891Z,15.80
2018-05-14T00:55:17.863Z,15.80
2018-05-14T00:57:46.005Z,15.80
2018-05-14T01:00:14.242Z,15.80
2018-05-14T01:02:43.248Z,15.70
2018-05-14T01:05:12.609Z,15.70
2018-05-14T01:07:40.752Z,15.70
2018-05-14T01:10:08.906Z,15.70
2018-05-14T01:12:37.076Z,15.60
2018-05-14T01:15:05.262Z,15.60
2018-05-14T01:17:33.399Z,15.60
2018-05-14T01:20:02.335Z,15.50
2018-05-14T01:22:30.466Z,15.50
2018-05-14T01:25:03.177Z,15.40
2018-05-14T01:27:31.337Z,15.40
2018-05-14T01:29:59.501Z,15.40
2018-05-14T01:32:27.627Z,15.40
2018-05-14T01:34:55.790Z,15.30
2018-05-14T01:37:23.946Z,15.30
2018-05-14T01:39:52.080Z,15.30
2018-05-14T01:42:21.012Z,15.30
2018-05-14T01:44:49.145Z,15.20
2018-05-14T01:47:18.059Z,15.20
2018-05-14T01:49:46.188Z,15.20
2018-05-14T01:52:14.324Z,15.20
2018-05-14T01:54:42.488Z,15.20
2018-05-14T01:57:10.625Z,15.10
2018-05-14T01:59:39.543Z,15.10
2018-05-14T02:02:07.731Z,15.10
2018-05-14T02:04:35.877Z,15.00
2018-05-14T02:07:04.033Z,15.00
2018-05-14T02:09:32.938Z,15.00
2018-05-14T02:12:01.063Z,14.90
2018-05-14T02:14:29.206Z,15.00
2018-05-14T02:16:57.327Z,14.90
2018-05-14T02:19:26.255Z,14.90
2018-05-14T02:21:54.407Z,14.90
2018-05-14T02:24:23.336Z,14.80
2018-05-14T02:26:51.457Z,14.80
2018-05-14T02:29:20.523Z,14.80
2018-05-14T02:31:48.619Z,14.80
2018-05-14T02:34:17.512Z,14.70
2018-05-14T02:36:46.427Z,14.70
2018-05-14T02:39:14.591Z,14.70
2018-05-14T02:41:42.733Z,14.70
2018-05-14T02:44:10.888Z,14.70
2018-05-14T02:46:39.033Z,14.60
2018-05-14T02:49:07.169Z,14.60
2018-05-14T02:51:36.078Z,14.60
2018-05-14T02:54:04.224Z,14.60
2018-05-14T02:56:33.123Z,14.50
2018-05-14T02:59:02.059Z,14.50
2018-05-14T03:01:30.206Z,14.50
2018-05-14T03:03:58.347Z,14.50
2018-05-14T03:06:26.472Z,14.50
2018-05-14T03:08:54.597Z,14.50
2018-05-14T03:11:23.520Z,14.50
2018-05-14T03:13:51.650Z,14.50
2018-05-14T03:16:19.816Z,14.50
2018-05-14T03:18:48.003Z,14.40
2018-05-14T03:21:16.195Z,14.40
2018-05-14T03:23:44.310Z,14.40
2018-05-14T03:26:12.478Z,14.40
2018-05-14T03:28:40.609Z,14.40
2018-05-14T03:31:08.733Z,14.40
2018-05-14T03:33:36.873Z,14.40
2018-05-14T03:36:05.007Z,14.40
2018-05-14T03:38:33.937Z,14.40
2018-05-14T03:41:02.074Z,14.30
2018-05-14T03:43:30.573Z,14.40
2018-05-14T03:45:58.730Z,14.40
2018-05-14T03:48:27.652Z,14.40
2018-05-14T03:50:55.802Z,14.40
2018-05-14T03:53:24.107Z,14.40
2018-05-14T03:55:52.281Z,14.40
2018-05-14T03:58:38.257Z,14.30
2018-05-14T04:01:15.314Z,14.30
2018-05-14T04:04:02.133Z,14.40
2018-05-14T04:06:36.381Z,14.50
2018-05-14T04:09:06.534Z,14.40
2018-05-14T04:11:34.675Z,14.50
2018-05-14T04:14:02.801Z,14.50
2018-05-14T04:16:31.776Z,14.50
2018-05-14T04:18:59.911Z,14.50
2018-05-14T04:21:28.142Z,14.50
2018-05-14T04:23:57.049Z,14.50
2018-05-14T04:26:25.185Z,14.50
2018-05-14T04:28:53.350Z,14.50
2018-05-14T04:31:22.319Z,14.60
2018-05-14T04:33:50.454Z,14.60
2018-05-14T04:36:18.620Z,14.60
2018-05-14T04:38:47.520Z,14.70
2018-05-14T04:41:15.661Z,14.70
2018-05-14T04:43:43.811Z,14.70
2018-05-14T04:46:11.941Z,14.80
2018-05-14T04:48:40.086Z,14.90
2018-05-14T04:51:09.012Z,15.00
2018-05-14T04:53:37.175Z,14.90
2018-05-14T04:56:05.327Z,15.00
2018-05-14T04:58:34.381Z,15.10
2018-05-14T05:01:02.511Z,15.20
2018-05-14T05:03:30.688Z,15.20
2018-05-14T05:05:58.836Z,15.30
2018-05-14T05:08:27.818Z,15.50
2018-05-14T05:10:55.940Z,15.50
2018-05-14T05:13:24.111Z,15.60
2018-05-14T05:15:52.256Z,15.60
2018-05-14T05:18:20.415Z,15.70
2018-05-14T05:20:48.581Z,15.80
2018-05-14T05:23:16.707Z,15.80
2018-05-14T05:25:45.080Z,16.00
2018-05-14T05:28:13.206Z,16.10
2018-05-14T05:30:42.945Z,16.30
2018-05-14T05:33:11.094Z,16.20
2018-05-14T05:35:40.009Z,16.50
2018-05-14T05:38:08.146Z,16.40
2018-05-14T05:40:37.804Z,17.00
2018-05-14T05:43:05.948Z,17.00
2018-05-14T05:45:34.876Z,17.50
2018-05-14T05:48:03.851Z,17.60
2018-05-14T05:50:32.027Z,17.60
2018-05-14T05:53:00.176Z,17.70
2018-05-14T05:55:29.072Z,17.80
2018-05-14T05:57:57.251Z,17.80
2018-05-14T06:00:25.435Z,17.80
2018-05-14T06:02:53.597Z,17.90
2018-05-14T06:05:21.772Z,17.90
2018-05-14T06:07:49.943Z,18.10
2018-05-14T06:10:18.118Z,18.30
2018-05-14T06:12:46.314Z,18.60
2018-05-14T06:15:14.557Z,18.70
2018-05-14T06:17:42.715Z,18.80
2018-05-14T06:20:11.648Z,18.60
2018-05-14T06:22:40.613Z,18.50
2018-05-14T06:25:08.778Z,18.50
2018-05-14T06:27:37.699Z,18.40
2018-05-14T06:30:05.845Z,18.40
2018-05-14T06:32:34.027Z,18.50
2018-05-14T06:35:02.160Z,18.50
2018-05-14T06:37:30.296Z,18.60
2018-05-14T06:39:58.444Z,18.60
2018-05-14T06:42:26.701Z,18.60
2018-05-14T06:44:54.811Z,18.70
2018-05-14T06:47:22.961Z,18.70
2018-05-14T06:49:51.169Z,18.80
2018-05-14T06:52:19.321Z,18.80
2018-05-14T06:54:47.466Z,18.90
2018-05-14T06:57:16.385Z,19.00
2018-05-14T06:59:44.542Z,19.00
2018-05-14T07:02:12.686Z,19.10
2018-05-14T07:04:41.127Z,19.20
2018-05-14T07:07:09.268Z,19.20
2018-05-14T07:09:37.432Z,19.30
2018-05-14T07:12:05.586Z,19.40
2018-05-14T07:14:34.513Z,19.60
2018-05-14T07:17:02.735Z,19.60
2018-05-14T07:19:30.922Z,19.70
2018-05-14T07:21:59.943Z,19.80
2018-05-14T07:24:28.104Z,19.80
2018-05-14T07:26:57.090Z,19.90
2018-05-14T07:29:26.165Z,20.00
2018-05-14T07:31:54.493Z,20.00
2018-05-14T07:34:22.645Z,20.10
2018-05-14T07:36:50.803Z,20.20
2018-05-14T07:39:18.950Z,20.30
2018-05-14T07:41:47.110Z,20.40
2018-05-14T07:44:15.240Z,20.50
2018-05-14T07:46:43.406Z,20.50
2018-05-14T07:49:11.576Z,20.60
2018-05-14T07:51:40.764Z,20.70
2018-05-14T07:54:09.949Z,20.80
2018-05-14T07:56:37.865Z,20.80
2018-05-14T07:59:06.019Z,20.90
2018-05-14T08:01:34.241Z,20.90
2018-05-14T08:04:02.439Z,21.00
2018-05-14T08:06:30.595Z,21.20
2018-05-14T08:08:58.799Z,21.20
2018-05-14T08:11:27.688Z,21.30
2018-05-14T08:13:56.611Z,21.40
2018-05-14T08:16:26.329Z,21.40
2018-05-14T08:18:54.472Z,21.50
2018-05-14T08:21:22.705Z,21.60
2018-05-14T08:23:51.096Z,21.70
2018-05-14T08:26:19.229Z,21.80
2018-05-14T08:28:47.438Z,21.80
2018-05-14T08:31:15.562Z,21.90
2018-05-14T08:33:43.794Z,22.00
2018-05-14T08:36:11.949Z,22.10
2018-05-14T08:38:40.095Z,22.20
2018-05-14T08:41:08.264Z,22.20
2018-05-14T08:43:36.442Z,22.30
2018-05-14T08:46:04.614Z,22.40
2018-05-14T08:48:32.970Z,22.60
2018-05-14T08:51:00.943Z,22.70
2018-05-14T08:53:29.105Z,22.80
2018-05-14T08:55:57.238Z,22.90
2018-05-14T08:58:25.360Z,23.00
2018-05-14T09:00:53.641Z,23.10
2018-05-14T09:03:22.545Z,23.20
2018-05-14T09:05:50.722Z,23.40
2018-05-14T09:08:18.892Z,23.50
2018-05-14T09:10:47.068Z,23.60
2018-05-14T09:13:15.336Z,23.60
2018-05-14T09:15:43.518Z,23.70
2018-05-14T09:18:11.667Z,23.80
2018-05-14T09:20:39.831Z,23.70
2018-05-14T09:23:07.982Z,23.70
2018-05-14T09:25:37.032Z,23.70
2018-05-14T09:28:05.172Z,23.70
2018-05-14T09:30:33.319Z,23.80
2018-05-14T09:33:01.520Z,24.00
2018-05-14T09:35:29.653Z,24.20
2018-05-14T09:37:58.566Z,24.30
2018-05-14T09:40:26.705Z,24.30
2018-05-14T09:42:55.654Z,24.40
2018-05-14T09:45:23.823Z,24.40
2018-05-14T09:47:52.027Z,24.40
2018-05-14T09:50:20.218Z,24.30
2018-05-14T09:52:49.339Z,24.30
2018-05-14T09:55:17.334Z,24.30
2018-05-14T09:57:45.494Z,24.50
2018-05-14T10:00:13.634Z,24.60
2018-05-14T10:02:41.856Z,24.60
2018-05-14T10:05:10.052Z,24.70
2018-05-14T10:07:38.226Z,24.80
2018-05-14T10:10:06.339Z,24.90
2018-05-14T10:12:35.271Z,25.20
2018-05-14T10:15:04.251Z,25.20
2018-05-14T10:17:32.393Z,25.20
2018-05-14T10:20:01.314Z,25.40
2018-05-14T10:22:30.298Z,25.50
2018-05-14T10:24:58.458Z,25.40
2018-05-14T10:27:26.807Z,25.50
2018-05-14T10:29:55.007Z,25.50
2018-05-14T10:32:23.178Z,25.50
2018-05-14T10:34:51.404Z,25.50
2018-05-14T10:37:19.537Z,25.40
2018-05-14T10:39:47.691Z,25.30
2018-05-14T10:42:16.621Z,25.40
2018-05-14T10:44:44.879Z,25.40
2018-05-14T10:47:13.043Z,25.20
2018-05-14T10:49:41.207Z,25.30
2018-05-14T10:52:09.417Z,25.40
2018-05-14T10:54:37.707Z,25.40
2018-05-14T10:57:05.869Z,25.40
2018-05-14T10:59:34.196Z,25.50
2018-05-14T11:02:02.481Z,25.30
2018-05-14T11:04:30.650Z,25.30
2018-05-14T11:06:59.567Z,25.30
2018-05-14T11:09:27.728Z,25.30
2018-05-14T11:11:58.768Z,25.40
2018-05-14T11:14:26.966Z,25.40
2018-05-14T11:16:55.125Z,25.40
2018-05-14T11:19:23.297Z,25.50
2018-05-14T11:21:51.426Z,25.60
2018-05-14T11:24:19.582Z,25.70
2018-05-14T11:26:47.964Z,25.80
2018-05-14T11:29:17.197Z,25.80
2018-05-14T11:31:45.364Z,25.80
2018-05-14T11:34:14.430Z,25.70
2018-05-14T11:36:43.393Z,25.70
2018-05-14T11:39:11.601Z,25.60
2018-05-14T11:41:39.782Z,25.60
2018-05-14T11:44:07.973Z,25.60
2018-05-14T11:46:36.333Z,25.70
2018-05-14T11:49:05.277Z,25.70
2018-05-14T11:51:33.453Z,25.70
2018-05-14T11:54:01.622Z,25.80
2018-05-14T11:56:29.769Z,25.80
2018-05-14T11:58:57.955Z,25.90
2018-05-14T12:01:26.310Z,25.80
2018-05-14T12:03:55.729Z,25.90
2018-05-14T12:06:23.922Z,25.90
2018-05-14T12:08:52.057Z,25.90
2018-05-14T12:11:20.259Z,25.90
2018-05-14T12:13:48.409Z,26.00
2018-05-14T12:16:16.669Z,26.00
2018-05-14T12:18:45.034Z,26.10
2018-05-14T12:21:13.357Z,26.20
2018-05-14T12:23:41.496Z,26.20
2018-05-14T12:26:09.651Z,26.10
2018-05-14T12:28:37.786Z,26.20
2018-05-14T12:31:05.922Z,26.20
2018-05-14T12:33:34.842Z,26.20
2018-05-14T12:36:04.075Z,26.20
2018-05-14T12:38:32.228Z,26.10
2018-05-14T12:41:00.399Z,26.10
2018-05-14T12:43:28.580Z,26.00
2018-05-14T12:45:56.743Z,26.00
2018-05-14T12:48:24.917Z,26.10
2018-05-14T12:50:53.192Z,26.10
2018-05-14T12:53:21.338Z,25.90
2018-05-14T12:55:49.482Z,25.90
2018-05-14T12:58:17.663Z,25.90
2018-05-14T13:00:46.708Z,26.00
2018-05-14T13:03:14.841Z,26.00
2018-05-14T13:05:42.986Z,26.00
2018-05-14T13:08:11.116Z,26.00
2018-05-14T13:10:39.289Z,25.90
2018-05-14T13:13:07.477Z,25.90
2018-05-14T13:15:35.645Z,26.00
2018-05-14T13:18:03.820Z,26.10
2018-05-14T13:20:31.958Z,26.00
2018-05-14T13:23:00.280Z,25.90
2018-05-14T13:25:28.447Z,25.80
2018-05-14T13:27:56.642Z,25.80
2018-05-14T13:30:25.601Z,25.90
2018-05-14T13:32:53.752Z,26.00
2018-05-14T13:35:21.881Z,26.00
2018-05-14T13:37:50.923Z,26.20
2018-05-14T13:40:19.062Z,26.10
2018-05-14T13:42:47.319Z,26.20
2018-05-14T13:45:16.184Z,26.30
2018-05-14T13:47:44.344Z,26.30
2018-05-14T13:50:12.507Z,26.30
2018-05-14T13:52:40.691Z,26.40
2018-05-14T13:55:08.951Z,26.10
2018-05-14T13:57:37.085Z,26.10
2018-05-14T14:00:05.987Z,26.20
2018-05-14T14:02:34.140Z,26.10
2018-05-14T14:05:02.302Z,26.10
2018-05-14T14:07:31.287Z,26.30
2018-05-14T14:09:59.435Z,26.30
2018-05-14T14:12:27.614Z,26.10
2018-05-14T14:14:55.764Z,25.90
2018-05-14T14:17:23.936Z,25.90
2018-05-14T14:19:52.066Z,25.80
2018-05-14T14:22:20.295Z,25.90
2018-05-14T14:24:49.259Z,26.00
2018-05-14T14:27:17.430Z,25.90
2018-05-14T14:29:45.664Z,25.80
2018-05-14T14:32:13.810Z,25.80
2018-05-14T14:34:42.088Z,25.70
2018-05-14T14:37:10.367Z,25.60
2018-05-14T14:39:38.719Z,25.60
2018-05-14T14:42:07.017Z,25.70
2018-05-14T14:44:35.902Z,25.70
2018-05-14T14:47:04.073Z,25.70
2018-05-14T14:49:32.230Z,25.70
2018-05-14T14:52:00.395Z,25.60
2018-05-14T14:54:28.563Z,25.60
2018-05-14T14:56:56.805Z,25.50
2018-05-14T14:59:25.021Z,25.50
2018-05-14T15:01:53.282Z,25.60
2018-05-14T15:04:21.378Z,25.70
2018-05-14T15:07:06.269Z,25.80
2018-05-14T15:48:16.661Z,25.30
2018-05-14T16:07:21.507Z,25.10
2018-05-14T16:19:59.865Z,25.00
2018-05-14T17:21:59.944Z,23.60
2018-05-14T17:24:28.196Z,23.60
2018-05-14T17:39:23.943Z,23.30
2018-05-14T18:42:06.836Z,20.90
2018-05-14T18:44:35.188Z,20.90
2018-05-14T18:47:03.350Z,20.90
2018-05-14T18:49:31.559Z,20.80
2018-05-14T18:51:59.805Z,20.70
2018-05-14T18:54:27.959Z,20.60
2018-05-14T18:56:56.983Z,20.50
2018-05-14T18:59:25.150Z,20.50
2018-05-14T19:01:53.399Z,20.40
2018-05-14T19:04:22.347Z,20.30
2018-05-14T19:06:50.511Z,20.30
2018-05-14T19:09:18.731Z,20.20
2018-05-14T19:11:52.148Z,20.10
2018-05-14T19:14:20.256Z,20.00
2018-05-14T19:16:54.022Z,19.90
2018-05-14T19:19:22.151Z,19.90
2018-05-14T19:21:50.292Z,19.80
2018-05-14T19:24:18.434Z,19.70
2018-05-14T19:26:47.345Z,19.60
2018-05-14T19:29:21.058Z,19.60
2018-05-14T19:31:49.259Z,19.50
2018-05-14T19:34:22.985Z,19.50
2018-05-14T19:36:51.241Z,19.40
2018-05-14T19:39:24.926Z,19.30
2018-05-14T19:41:53.149Z,19.20
2018-05-14T19:44:22.092Z,19.10
2018-05-14T19:46:50.250Z,19.00
2018-05-14T19:49:18.560Z,19.00
2018-05-14T19:51:47.417Z,18.90
2018-05-14T19:54:15.634Z,18.80
2018-05-14T19:56:45.646Z,18.80
2018-05-14T19:59:14.100Z,18.80
2018-05-14T20:01:42.387Z,18.70
2018-05-14T20:04:10.538Z,18.70
2018-05-14T20:06:38.780Z,18.60
2018-05-14T20:09:06.967Z,18.60
2018-05-14T20:11:35.155Z,18.60
2018-05-14T20:14:03.384Z,18.60
2018-05-14T20:16:32.397Z,18.50
2018-05-14T20:19:00.614Z,18.50
2018-05-14T20:21:28.767Z,18.50
2018-05-14T20:23:58.740Z,18.50
2018-05-14T20:26:27.563Z,18.40
2018-05-14T20:29:14.981Z,18.40
2018-05-14T20:31:43.988Z,18.40
2018-05-14T20:34:12.156Z,18.40
2018-05-14T20:36:40.531Z,18.30
2018-05-14T20:39:08.708Z,18.30
2018-05-14T20:41:37.270Z,18.30
2018-05-14T20:44:05.428Z,18.20
2018-05-14T20:46:34.464Z,18.10
2018-05-14T20:49:02.669Z,18.10
2018-05-14T20:51:30.836Z,18.10
2018-05-14T20:53:59.031Z,18.10
2018-05-14T20:56:27.984Z,17.90
2018-05-14T20:58:56.199Z,17.90
2018-05-14T21:01:25.187Z,17.80
2018-05-14T21:03:54.202Z,17.80
2018-05-14T21:06:22.423Z,17.80
2018-05-14T21:08:50.609Z,17.80
2018-05-14T21:11:18.815Z,17.70
2018-05-14T21:13:47.002Z,17.70
2018-05-14T21:16:15.226Z,17.70
2018-05-14T21:18:43.393Z,17.60
2018-05-14T21:21:11.557Z,17.60
2018-05-14T21:23:39.688Z,17.60
2018-05-14T21:26:07.832Z,17.50
2018-05-14T21:28:35.983Z,17.50
2018-05-14T21:31:04.126Z,17.40
2018-05-14T21:33:33.063Z,17.30
2018-05-14T21:36:01.292Z,17.30
2018-05-14T21:38:29.554Z,17.20
2018-05-14T21:40:57.699Z,17.20
2018-05-14T21:43:26.724Z,17.00
2018-05-14T21:45:54.899Z,17.00
2018-05-14T21:48:23.095Z,17.00
2018-05-14T21:50:51.384Z,16.90
2018-05-14T21:53:19.587Z,16.90
2018-05-14T21:55:48.520Z,16.80
2018-05-14T21:58:16.741Z,16.80
2018-05-14T22:00:44.922Z,16.80
2018-05-14T22:03:13.124Z,16.70
2018-05-14T22:05:51.031Z,16.70
2018-05-14T22:08:19.250Z,16.70
2018-05-14T22:10:47.453Z,16.60
2018-05-14T22:13:16.416Z,16.60
2018-05-14T22:15:44.584Z,16.50
2018-05-14T22:18:12.881Z,16.50
2018-05-14T22:20:40.936Z,16.50
2018-05-14T22:23:09.179Z,16.50
2018-05-14T22:25:38.379Z,16.50
2018-05-14T22:28:06.555Z,16.40
2018-05-14T22:30:34.704Z,16.40
2018-05-14T22:33:02.862Z,16.30
2018-05-14T22:35:31.806Z,16.20
2018-05-14T22:37:59.955Z,16.20
2018-05-14T22:40:28.131Z,16.20
2018-05-14T22:42:56.262Z,16.20
2018-05-14T22:45:25.198Z,16.00
2018-05-14T22:47:53.334Z,16.00
2018-05-14T22:50:22.240Z,15.90
2018-05-14T22:52:50.389Z,15.90
2018-05-14T22:55:19.328Z,15.80
2018-05-14T22:57:47.487Z,15.80
2018-05-14T23:00:27.236Z,15.80
2018-05-14T23:02:55.483Z,15.80
2018-05-14T23:05:23.616Z,15.70
2018-05-14T23:07:51.774Z,15.60
2018-05-14T23:10:19.898Z,15.60
2018-05-14T23:12:48.033Z,15.50
2018-05-14T23:15:16.207Z,15.40
2018-05-14T23:17:44.696Z,15.40
2018-05-14T23:20:13.070Z,15.30
2018-05-14T23:22:45.099Z,15.30
2018-05-14T23:25:13.356Z,15.30
2018-05-14T23:27:41.493Z,15.20
2018-05-14T23:30:09.631Z,15.10
2018-05-14T23:32:37.765Z,15.00
2018-05-14T23:35:05.933Z,15.00
2018-05-14T23:37:34.289Z,14.90
2018-05-14T23:40:03.206Z,14.80
2018-05-14T23:42:31.325Z,14.70
2018-05-14T23:45:00.356Z,14.70
2018-05-14T23:47:29.261Z,14.60
2018-05-14T23:49:57.395Z,14.60
2018-05-14T23:52:27.315Z,14.50
2018-05-14T23:54:55.505Z,14.50
2018-05-14T23:57:24.533Z,14.40
2018-05-14T23:59:52.751Z,14.40
